Pinto, Utah
Current Conditions -  °F | °C
As of 6:53 PM on Friday 24 Oct 2014 (Local Time) from KCDC Reporting Station
Clear Clear  
Wind Chill: 64°   Ceiling: Unl
Heat Index: 64°   Visibility: 10mi
Dew Point: 28°   Wind: 10mph
Humidity: 26%   Direction: 220°SW
Pressure: 30.18"   Gusts: NA
Location:  37.8476°N, 113.744°W
Report Text: KCDC 250053Z AUTO 22009KT 10SM CLR 18/M02 A3018 RMK AO2 SLP183 T01781022 TSNO
Loading
Personal Weather Stations






























Interactive Weather Map
Tropical Storm Tracking
New forecast layout! Learn more

10-Day Weather Forecast

Advertisements
Track Severe Weather on mobile